Etusivu
METAR-TAF:

METAR-TAF

Lentoasemat :

Sogndal, Norja

Leveyspiiri: 61-09N, Pituuspiiri: 007-08E, korkeus merenpinnasta: 49 m

Tämänhetkinen sää

Tämä raportti tehtiin 1 tunti ja 6 minuuttia sitten, kello 03.50 UTC
Tuuli 4 kn idästä/koillisesta
Lämpötila 5°C
Kosteus 93%
Ilmanpaine 1014 hPa
Näkyvyys 10 km tai enemmän
ei pilviä alle 1500 m:ssä eikä cumulonimbus-pilviä

METAR: ENSG 230350Z 07004KT CAVOK 05/04 Q1014 RMK WIND 3806FT 08007KT

Aika: 06:56 (04:56 UTC)


TAF: puuttuu

Säähavainnot ja -ennusteet yli 4000 lentoasemalta (METAR- ja TAF-raportit).

Käytössä olevat sääasemat on merkitty karttaan keltaisilla ja punaisilla pisteillä.

Aseta hiiri pisteen päälle nähdäksesi sääaseman nimen.

Klikkaa sitten nähdäksesi säähavainnot ja -ennusteet.

Kartan vaihtaminen: klikkaa mustalla rastilla varustettuja vihreitä pisteitä, niin voit zoomata sisään; viivalla varustettua vihreää pistettä, niin voit zoomata ulos tai vihreitä nuolia, niin pääset viereisille kartoille.


METAR-TAF: